KMXF

Maxwell AFB Airport

Montgomery, Alabama, USA
METAR KMXF 230756Z AUTO 00000KT 10SM CLR 18/16 A3033 RMK AO2 SLP272 T01770162 $
Observed Flight Rules
Feb-23 @ 07:56 UTC (28 minutes ago) Visual Flight Rules
Wind Visibility Clouds
Calm 10 miles
  • Clear skies
Temperatures Readings
Current 18°C / 64°F
Dewpoint 16°C / 61°F
Humidity 88%
Altimeter 30.33" Hg
Pressure 1027.2 hPa
Elevation 51
METAR KMXF 230756Z AUTO 00000KT 10SM CLR 18/16 A3033 RMK AO2 SLP272 T01770162 $
Observed Flight Rules
Feb-23 @ 07:56 UTC
(28 minutes ago)
VFR
Wind Visibility
Calm 10 miles
Clouds
  • Clear skies
Temperature Dewpoint
18°C / 64°F 16°C / 61°F
Humidity Altimeter Pressure
88% 30.33" Hg 1027.2 hPa